Time;durP1;ratioP1;P1;durP2;ratioP2;P2;SDS_P1;SDS_P2;PMS_P1;PMS_P2;Temp;Humidity;BMP_temperature;BMP_pressure;BME280_temperature;BME280_humidity;BME280_pressure;Samples;Min_cycle;Max_cycle;Signal;HPM_P1;HPM_P2
2022/02/27 00:02:49;;;;;;;0.17;0.03;;;;;20.60;94699.00;;;;10437323;28;45186;-46
2022/02/27 00:07:50;;;;;;;0.20;0.10;;;;;20.60;94718.00;;;;10436668;28;45162;-48
2022/02/27 00:12:51;;;;;;;0.10;0.00;;;;;20.60;94696.00;;;;10436780;28;45345;-46
2022/02/27 00:17:52;;;;;;;0.10;0.00;;;;;20.60;94710.00;;;;10435751;28;45201;-48
2022/02/27 00:22:54;;;;;;;0.05;0.03;;;;;20.60;94706.00;;;;10436573;28;45324;-47
2022/02/27 00:27:55;;;;;;;0.17;0.10;;;;;20.60;94696.00;;;;10436132;28;45275;-48
2022/02/27 00:32:56;;;;;;;0.30;0.10;;;;;20.60;94693.00;;;;10435012;28;45821;-46
2022/02/27 00:37:57;;;;;;;0.60;0.10;;;;;20.60;94696.00;;;;10435593;28;46251;-47
2022/02/27 00:42:58;;;;;;;0.32;0.00;;;;;20.60;94678.00;;;;10435772;28;45313;-46
2022/02/27 00:48:00;;;;;;;0.22;0.03;;;;;20.60;94674.00;;;;10435449;28;46119;-47
2022/02/27 00:53:01;;;;;;;0.10;0.10;;;;;20.60;94666.00;;;;10435891;28;45573;-47
2022/02/27 00:58:02;;;;;;;0.10;0.03;;;;;20.60;94668.00;;;;10434744;28;46200;-47
2022/02/27 01:03:03;;;;;;;0.10;0.00;;;;;20.60;94677.00;;;;10435410;28;46085;-46
2022/02/27 01:08:05;;;;;;;0.00;0.00;;;;;20.60;94678.00;;;;10435173;28;45166;-47
2022/02/27 01:13:06;;;;;;;0.88;0.10;;;;;20.60;94676.00;;;;10434890;28;45318;-46
2022/02/27 01:18:07;;;;;;;0.13;0.05;;;;;20.60;94676.00;;;;10434473;28;45204;-47
2022/02/27 01:23:10;;;;;;;0.20;0.10;;;;;20.60;94655.00;;;;10434961;28;45897;-46
2022/02/27 01:28:11;;;;;;;0.45;0.05;;;;;20.60;94684.00;;;;10434920;28;45223;-49
2022/02/27 01:33:12;;;;;;;0.10;0.00;;;;;20.60;94683.00;;;;10435418;28;45767;-47
2022/02/27 01:38:13;;;;;;;0.00;0.00;;;;;20.60;94681.00;;;;10433912;28;45587;-48
2022/02/27 01:43:14;;;;;;;0.10;0.00;;;;;20.60;94680.00;;;;10437399;28;45220;-46
2022/02/27 01:48:15;;;;;;;0.32;0.10;;;;;20.60;94682.00;;;;10440931;28;45447;-47
2022/02/27 01:53:16;;;;;;;0.00;0.00;;;;;20.60;94690.00;;;;10441622;28;45425;-48
2022/02/27 01:58:17;;;;;;;0.10;0.10;;;;;20.60;94682.00;;;;10438756;28;46028;-47
2022/02/27 02:03:18;;;;;;;0.08;0.08;;;;;20.60;94668.00;;;;10434768;28;45462;-47
2022/02/27 02:08:20;;;;;;;0.05;0.05;;;;;20.60;94665.00;;;;10439834;28;45257;-47
2022/02/27 02:13:21;;;;;;;0.00;0.00;;;;;20.60;94693.00;;;;10439857;28;45424;-47
2022/02/27 02:18:22;;;;;;;0.20;0.10;;;;;20.60;94663.00;;;;10440162;28;46281;-47
2022/02/27 02:23:23;;;;;;;0.00;0.00;;;;;20.50;94681.00;;;;10440755;28;46198;-47
2022/02/27 02:28:24;;;;;;;0.10;0.00;;;;;20.60;94688.00;;;;10439920;28;45627;-47
2022/02/27 02:33:45;;;;;;;0.00;0.00;;;;;20.60;94678.00;;;;10440006;28;46234;-48
2022/02/27 02:38:46;;;;;;;0.20;0.10;;;;;20.60;94690.00;;;;10439448;28;45177;-47
2022/02/27 02:43:48;;;;;;;0.10;0.00;;;;;20.60;94675.00;;;;10438045;28;46244;-48
2022/02/27 02:48:49;;;;;;;0.30;0.10;;;;;20.60;94678.00;;;;10439132;28;45155;-46
2022/02/27 02:53:50;;;;;;;0.25;0.05;;;;;20.60;94673.00;;;;10438437;28;46100;-47
2022/02/27 02:58:51;;;;;;;0.25;0.00;;;;;20.50;94669.00;;;;10437633;28;45218;-46
2022/02/27 03:03:53;;;;;;;0.05;0.00;;;;;20.50;94682.00;;;;10439239;28;45188;-47
2022/02/27 03:08:54;;;;;;;0.00;0.00;;;;;20.60;94664.00;;;;10438217;28;45208;-48
2022/02/27 03:14:00;;;;;;;0.20;0.00;;;;;20.60;94662.00;;;;10438781;28;45182;-47
2022/02/27 03:19:01;;;;;;;;;;;;;20.60;94665.00;;;;10438178;28;46243;-47
2022/02/27 03:24:03;;;;;;;0.03;0.00;;;;;20.60;94679.00;;;;10437462;28;45233;-48
2022/02/27 03:29:04;;;;;;;0.10;0.10;;;;;20.50;94683.00;;;;10437463;28;47049;-47
2022/02/27 03:34:05;;;;;;;0.13;0.10;;;;;20.60;94669.00;;;;10436890;28;47794;-47
2022/02/27 03:39:06;;;;;;;0.25;0.13;;;;;20.60;94666.00;;;;10437401;28;45151;-45
2022/02/27 03:44:07;;;;;;;0.03;0.03;;;;;20.60;94663.00;;;;10437771;28;46277;-47
2022/02/27 03:49:08;;;;;;;0.00;0.00;;;;;20.50;94665.00;;;;10437572;28;46444;-48
2022/02/27 03:54:10;;;;;;;0.13;0.00;;;;;20.50;94663.00;;;;10437667;28;45496;-48
2022/02/27 03:59:11;;;;;;;0.10;0.00;;;;;20.50;94673.00;;;;10436911;28;45126;-47
2022/02/27 04:04:12;;;;;;;0.10;0.00;;;;;20.60;94670.00;;;;10435677;28;45326;-49
2022/02/27 04:09:13;;;;;;;0.05;0.00;;;;;20.50;94672.00;;;;10436930;28;45266;-48
2022/02/27 04:14:15;;;;;;;0.25;0.10;;;;;20.60;94666.00;;;;10436489;28;46025;-48
2022/02/27 04:19:16;;;;;;;0.00;0.00;;;;;20.60;94655.00;;;;10436435;28;45158;-48
2022/02/27 04:24:17;;;;;;;0.00;0.00;;;;;20.50;94661.00;;;;10436619;28;45161;-48
2022/02/27 04:29:18;;;;;;;0.00;0.00;;;;;20.60;94684.00;;;;10435723;28;45398;-48
2022/02/27 04:34:20;;;;;;;0.10;0.00;;;;;20.50;94668.00;;;;10436298;28;46021;-48
2022/02/27 04:39:21;;;;;;;0.38;0.10;;;;;20.50;94676.00;;;;10435523;28;45219;-48
2022/02/27 04:44:22;;;;;;;0.20;0.10;;;;;20.60;94692.00;;;;10435802;28;46108;-48
2022/02/27 04:49:25;;;;;;;0.10;0.05;;;;;20.60;94688.00;;;;10435011;28;45105;-48
2022/02/27 04:54:26;;;;;;;0.20;0.10;;;;;20.50;94694.00;;;;10434279;28;45203;-48
2022/02/27 04:59:27;;;;;;;0.00;0.00;;;;;20.50;94694.00;;;;10435151;28;45213;-48
2022/02/27 05:04:28;;;;;;;0.25;0.00;;;;;20.50;94676.00;;;;10435588;28;45180;-48
2022/02/27 05:09:30;;;;;;;0.13;0.10;;;;;20.50;94669.00;;;;10434486;28;45548;-47
2022/02/27 05:14:31;;;;;;;0.15;0.00;;;;;20.50;94682.00;;;;10435512;28;45120;-46
2022/02/27 05:19:32;;;;;;;0.00;0.00;;;;;20.50;94697.00;;;;10439763;28;45992;-48
2022/02/27 05:24:33;;;;;;;0.28;0.20;;;;;20.50;94696.00;;;;10442682;28;45363;-47
2022/02/27 05:29:34;;;;;;;0.00;0.00;;;;;20.50;94688.00;;;;10441448;28;45269;-46
2022/02/27 05:34:35;;;;;;;0.13;0.08;;;;;20.60;94704.00;;;;10442362;28;45262;-48
2022/02/27 05:39:36;;;;;;;0.20;0.10;;;;;20.50;94710.00;;;;10441610;28;45341;-48
2022/02/27 05:44:39;;;;;;;0.00;0.00;;;;;20.60;94698.00;;;;10441377;28;45184;-48
2022/02/27 05:49:40;;;;;;;0.10;0.00;;;;;20.60;94716.00;;;;10440553;28;47326;-47
2022/02/27 05:54:41;;;;;;;0.30;0.13;;;;;20.50;94705.00;;;;10441614;28;46077;-47
2022/02/27 05:59:42;;;;;;;0.10;0.10;;;;;20.60;94728.00;;;;10440652;28;46153;-48
2022/02/27 06:04:43;;;;;;;0.00;0.00;;;;;20.60;94707.00;;;;10440964;28;45257;-48
2022/02/27 06:09:44;;;;;;;0.08;0.05;;;;;20.60;94725.00;;;;10440688;28;45202;-49
2022/02/27 06:14:45;;;;;;;0.00;0.00;;;;;20.50;94711.00;;;;10441054;28;46430;-47
2022/02/27 06:19:46;;;;;;;0.00;0.00;;;;;20.60;94710.00;;;;10439985;28;45996;-48
2022/02/27 06:24:47;;;;;;;0.63;0.10;;;;;20.60;94726.00;;;;10440432;28;45263;-47
2022/02/27 06:29:48;;;;;;;0.52;0.10;;;;;20.50;94723.00;;;;10438505;28;45244;-49
2022/02/27 06:34:49;;;;;;;0.10;0.05;;;;;20.50;94730.00;;;;10440025;28;45598;-48
2022/02/27 06:39:50;;;;;;;0.10;0.00;;;;;20.60;94739.00;;;;10439224;28;45172;-48
2022/02/27 06:44:52;;;;;;;0.10;0.10;;;;;20.50;94740.00;;;;10439796;28;46390;-47
2022/02/27 06:49:53;;;;;;;0.17;0.00;;;;;20.50;94746.00;;;;10438469;28;45462;-48
2022/02/27 06:54:54;;;;;;;0.08;0.00;;;;;20.60;94752.00;;;;10439534;28;46199;-48
2022/02/27 06:59:55;;;;;;;0.10;0.00;;;;;20.60;94744.00;;;;10437325;28;46248;-48
2022/02/27 07:04:56;;;;;;;0.08;0.00;;;;;20.50;94748.00;;;;10439094;28;45289;-48
2022/02/27 07:10:00;;;;;;;0.20;0.10;;;;;20.50;94748.00;;;;10438357;28;46160;-47
2022/02/27 07:15:02;;;;;;;0.20;0.10;;;;;20.60;94755.00;;;;10438059;28;45133;-48
2022/02/27 07:20:04;;;;;;;0.20;0.10;;;;;20.50;94740.00;;;;10438132;28;45342;-48
2022/02/27 07:25:07;;;;;;;0.28;0.10;;;;;20.50;94760.00;;;;10438713;28;45247;-48
2022/02/27 07:30:08;;;;;;;0.10;0.08;;;;;20.60;94762.00;;;;10435776;28;46924;-48
2022/02/27 07:35:09;;;;;;;0.10;0.10;;;;;20.50;94761.00;;;;10432087;28;45168;-47
2022/02/27 07:40:11;;;;;;;0.00;0.00;;;;;20.50;94761.00;;;;10436440;28;45186;-48
2022/02/27 07:45:12;;;;;;;0.08;0.00;;;;;20.50;94765.00;;;;10436631;28;45175;-48
2022/02/27 07:50:13;;;;;;;0.10;0.08;;;;;20.50;94754.00;;;;10436679;28;45383;-47
2022/02/27 07:55:14;;;;;;;0.00;0.00;;;;;20.60;94757.00;;;;10437158;28;46212;-47
2022/02/27 08:00:16;;;;;;;0.00;0.00;;;;;20.60;94754.00;;;;10436494;28;45919;-47
2022/02/27 08:05:17;;;;;;;0.20;0.15;;;;;20.60;94763.00;;;;10436804;28;47043;-49
2022/02/27 08:14:46;;;;;;;0.25;0.20;;;;;19.60;94766.00;;;;10560475;27;45482;-80
2022/02/27 08:19:48;;;;;;;0.95;0.40;;;;;19.50;94783.00;;;;10543285;27;47425;-79
2022/02/27 08:24:49;;;;;;;0.57;0.28;;;;;19.50;94776.00;;;;10540104;27;46980;-80
2022/02/27 08:29:51;;;;;;;0.40;0.20;;;;;19.50;94782.00;;;;10538948;27;48248;-79
2022/02/27 08:34:53;;;;;;;0.75;0.10;;;;;19.40;94777.00;;;;10540179;27;47476;-80
2022/02/27 08:39:54;;;;;;;0.50;0.10;;;;;19.40;94792.00;;;;10538726;27;47411;-80
2022/02/27 08:44:55;;;;;;;0.70;0.20;;;;;19.40;94788.00;;;;10538371;27;47115;-80
2022/02/27 08:49:56;;;;;;;0.43;0.20;;;;;19.40;94793.00;;;;10538360;27;47221;-80
2022/02/27 08:57:46;;;;;;;0.55;0.20;;;;;19.30;94807.00;;;;10643401;27;45199;-80
2022/02/27 09:02:48;;;;;;;0.45;0.20;;;;;19.30;94767.00;;;;10627663;27;47878;-81
2022/02/27 09:07:49;;;;;;;12.10;4.70;;;;;19.50;94787.00;;;;10636375;27;47127;-79
2022/02/27 09:12:50;;;;;;;8.38;3.70;;;;;19.60;94787.00;;;;10634903;27;47279;-82
2022/02/27 09:17:51;;;;;;;3.13;1.05;;;;;19.60;94778.00;;;;10631979;27;48570;-85
2022/02/27 09:22:52;;;;;;;2.00;0.63;;;;;19.70;94784.00;;;;10632036;27;47287;-83
2022/02/27 09:27:53;;;;;;;1.65;0.50;;;;;19.90;94771.00;;;;10630785;27;46913;-82
2022/02/27 09:32:54;;;;;;;1.15;0.40;;;;;19.90;94767.00;;;;10631622;27;46883;-80
2022/02/27 09:37:59;;;;;;;1.67;0.60;;;;;19.80;94771.00;;;;10629515;27;47366;-84
2022/02/27 09:43:00;;;;;;;1.58;0.40;;;;;19.90;94780.00;;;;10633020;27;47325;-82
2022/02/27 09:48:01;;;;;;;1.35;0.30;;;;;19.90;94761.00;;;;10633855;27;46894;-84
2022/02/27 09:53:02;;;;;;;2.03;0.40;;;;;19.90;94774.00;;;;10643317;27;47354;-82
2022/02/27 09:58:04;;;;;;;0.93;0.30;;;;;20.00;94768.00;;;;10648743;27;47099;-80
2022/02/27 10:03:16;;;;;;;1.80;0.35;;;;;19.90;94761.00;;;;10641008;27;45170;-80
2022/02/27 10:08:17;;;;;;;100.25;39.08;;;;;19.90;94748.00;;;;10588968;27;48436;-80
2022/02/27 10:13:31;;;;;;;12.90;4.78;;;;;19.90;94764.00;;;;10587300;27;47275;-81
2022/02/27 10:18:45;;;;;;;5.35;1.65;;;;;19.80;94759.00;;;;10585541;27;47393;-81
2022/02/27 10:23:59;;;;;;;4.70;1.20;;;;;19.90;94761.00;;;;10600703;27;48222;-83
2022/02/27 10:29:15;;;;;;;4.28;1.10;;;;;19.90;94761.00;;;;10601354;27;47456;-82
2022/02/27 10:34:23;;;;;;;2.92;0.70;;;;;19.80;94750.00;;;;10585004;27;47110;-82
2022/02/27 10:39:51;;;;;;;1.90;0.90;;;;;19.80;94746.00;;;;10601821;27;45501;-81
2022/02/27 10:45:00;;;;;;;2.05;0.70;;;;;19.80;94757.00;;;;10583621;27;47316;-82
2022/02/27 10:50:13;;;;;;;2.47;0.88;;;;;19.80;94746.00;;;;10581858;27;47136;-82
2022/02/27 10:55:16;;;;;;;1.92;0.73;;;;;19.80;94754.00;;;;10599533;27;45377;-82
2022/02/27 11:00:20;;;;;;;1.50;0.50;;;;;19.80;94750.00;;;;10598577;27;47168;-83
2022/02/27 11:05:23;;;;;;;1.85;0.60;;;;;19.80;94735.00;;;;10618258;27;45580;-81
2022/02/27 11:10:30;;;;;;;1.65;0.57;;;;;19.80;94736.00;;;;10601450;27;45201;-82
2022/02/27 11:15:31;;;;;;;;;;;;;19.80;94719.00;;;;10583483;27;47000;-82
2022/02/27 11:20:32;;;;;;;1.60;0.60;;;;;19.80;94707.00;;;;10580680;27;47858;-81
2022/02/27 11:25:33;;;;;;;0.70;0.40;;;;;19.70;94723.00;;;;10598238;27;46869;-82
2022/02/27 11:30:37;;;;;;;1.42;0.57;;;;;19.70;94709.00;;;;10597816;27;47145;-82
2022/02/27 11:35:43;;;;;;;1.40;0.52;;;;;19.70;94707.00;;;;10580603;27;47611;-82
2022/02/27 11:40:46;;;;;;;2.63;0.80;;;;;19.70;94699.00;;;;10616657;27;45542;-81
2022/02/27 11:45:47;;;;;;;1.27;0.57;;;;;19.70;94701.00;;;;10579551;27;46973;-82
2022/02/27 11:50:53;;;;;;;1.00;0.43;;;;;19.70;94684.00;;;;10595055;27;47050;-82
2022/02/27 11:55:54;;;;;;;0.90;0.50;;;;;19.70;94683.00;;;;10594620;27;46822;-82
2022/02/27 12:01:02;;;;;;;1.33;0.52;;;;;19.80;94679.00;;;;10577809;27;47270;-82
2022/02/27 12:06:05;;;;;;;1.77;0.52;;;;;19.80;94663.00;;;;10597154;27;45450;-82
2022/02/27 12:11:44;;;;;;;1.27;0.40;;;;;19.80;94652.00;;;;10577115;27;48452;-82
2022/02/27 12:16:48;;;;;;;0.57;0.40;;;;;19.70;94637.00;;;;10503056;28;47799;-82
2022/02/27 12:21:56;;;;;;;2.03;0.50;;;;;19.70;94634.00;;;;10515978;27;47883;-82
2022/02/27 12:27:05;;;;;;;2.60;0.50;;;;;19.70;94638.00;;;;10533974;27;47862;-82
2022/02/27 12:32:22;;;;;;;2.40;0.50;;;;;19.80;94651.00;;;;10490467;28;47295;-82
2022/02/27 12:37:30;;;;;;;1.48;0.35;;;;;19.80;94632.00;;;;10489979;28;47075;-82
2022/02/27 12:42:33;;;;;;;0.60;0.30;;;;;19.80;94635.00;;;;10490881;28;47068;-82
2022/02/27 12:47:34;;;;;;;0.90;0.50;;;;;19.90;94641.00;;;;10507807;28;47059;-82
2022/02/27 12:52:38;;;;;;;1.45;0.60;;;;;19.80;94636.00;;;;10507225;28;47161;-82
2022/02/27 12:57:45;;;;;;;0.68;0.40;;;;;19.80;94635.00;;;;10507144;28;47165;-82
2022/02/27 13:02:48;;;;;;;1.00;0.45;;;;;19.80;94637.00;;;;10489264;28;48141;-82
2022/02/27 13:07:49;;;;;;;1.75;0.30;;;;;19.80;94630.00;;;;10504859;28;47305;-82
2022/02/27 13:12:50;;;;;;;1.20;0.40;;;;;19.80;94627.00;;;;10488821;28;47328;-82
2022/02/27 13:17:52;;;;;;;0.47;0.28;;;;;19.80;94624.00;;;;10504865;28;47180;-82
2022/02/27 13:22:53;;;;;;;1.55;0.50;;;;;19.80;94616.00;;;;10504827;28;48240;-82
2022/02/27 13:27:54;;;;;;;0.57;0.30;;;;;19.90;94609.00;;;;10504657;28;47283;-82
2022/02/27 13:33:00;;;;;;;0.90;0.40;;;;;19.90;94618.00;;;;10504544;28;47087;-80
2022/02/27 13:38:05;;;;;;;0.52;0.30;;;;;19.90;94622.00;;;;10486545;28;47652;-81
2022/02/27 13:43:18;;;;;;;0.80;0.40;;;;;19.80;94619.00;;;;10508870;28;47152;-81
2022/02/27 13:48:38;;;;;;;0.75;0.40;;;;;19.80;94615.00;;;;10511310;28;45953;-81
2022/02/27 13:53:39;;;;;;;1.05;0.50;;;;;19.90;94613.00;;;;10510607;28;47028;-82
2022/02/27 13:58:41;;;;;;;1.40;0.50;;;;;19.90;94608.00;;;;10510127;28;47255;-82
2022/02/27 14:03:45;;;;;;;1.00;0.40;;;;;19.90;94603.00;;;;10510190;28;46863;-81
2022/02/27 14:08:56;;;;;;;0.60;0.30;;;;;20.00;94601.00;;;;10508990;28;47239;-82
2022/02/27 14:14:07;;;;;;;2.72;0.80;;;;;20.00;94594.00;;;;10492768;28;47164;-81
2022/02/27 14:19:10;;;;;;;1.10;0.30;;;;;20.00;94594.00;;;;10510412;28;47150;-82
2022/02/27 14:24:17;;;;;;;0.55;0.30;;;;;20.00;94598.00;;;;10509537;28;47383;-81
2022/02/27 14:29:18;;;;;;;0.82;0.30;;;;;20.10;94606.00;;;;10509233;28;45546;-82
2022/02/27 14:34:21;;;;;;;0.52;0.30;;;;;20.10;94607.00;;;;10509222;28;47072;-81
2022/02/27 14:39:22;;;;;;;1.15;0.40;;;;;20.10;94601.00;;;;10508553;28;48460;-83
2022/02/27 14:44:23;;;;;;;2.33;0.88;;;;;20.30;94604.00;;;;10508652;28;48116;-83
2022/02/27 14:49:24;;;;;;;1.02;0.30;;;;;20.40;94616.00;;;;10507958;28;47892;-82
2022/02/27 14:54:25;;;;;;;0.65;0.25;;;;;20.50;94602.00;;;;10489817;28;46910;-81
2022/02/27 14:59:26;;;;;;;0.50;0.32;;;;;20.50;94609.00;;;;10481197;28;48203;-82
2022/02/27 15:04:28;;;;;;;0.45;0.30;;;;;20.60;94619.00;;;;10491085;28;47292;-82
2022/02/27 15:09:29;;;;;;;0.95;0.43;;;;;20.60;94623.00;;;;10498319;28;48078;-81
2022/02/27 15:14:31;;;;;;;1.13;0.35;;;;;20.60;94611.00;;;;10494450;28;47178;-83
2022/02/27 15:19:32;;;;;;;11.00;4.28;;;;;20.50;94619.00;;;;10500140;28;48154;-82
2022/02/27 15:24:34;;;;;;;6.40;2.63;;;;;20.50;94613.00;;;;10499666;28;48167;-82
2022/02/27 15:29:35;;;;;;;5.03;1.30;;;;;20.50;94619.00;;;;10492605;28;47396;-80
2022/02/27 15:34:36;;;;;;;3.03;1.00;;;;;20.60;94614.00;;;;10487398;27;48088;-83
2022/02/27 15:39:37;;;;;;;2.33;0.90;;;;;20.70;94623.00;;;;10529080;27;47329;-83
2022/02/27 15:44:38;;;;;;;3.17;1.40;;;;;20.80;94619.00;;;;10518180;27;47469;-84
2022/02/27 15:49:39;;;;;;;2.88;0.80;;;;;20.70;94627.00;;;;10489881;28;48290;-81
2022/02/27 15:54:41;;;;;;;1.70;0.70;;;;;20.60;94629.00;;;;10489337;28;47469;-82
2022/02/27 15:59:43;;;;;;;2.00;0.65;;;;;20.60;94616.00;;;;10489156;28;47058;-82
2022/02/27 16:04:44;;;;;;;1.52;0.65;;;;;20.60;94620.00;;;;10488421;28;47047;-82
2022/02/27 16:09:45;;;;;;;1.30;0.52;;;;;20.50;94620.00;;;;10496719;27;47127;-83
2022/02/27 16:14:49;;;;;;;1.95;0.68;;;;;20.60;94616.00;;;;10539765;27;47232;-83
2022/02/27 16:19:51;;;;;;;1.95;0.50;;;;;20.60;94628.00;;;;10524209;28;47212;-83
2022/02/27 16:24:52;;;;;;;2.17;0.60;;;;;20.60;94629.00;;;;10505143;28;46901;-82
2022/02/27 16:29:53;;;;;;;3.40;0.60;;;;;20.70;94617.00;;;;10505444;28;47390;-81
2022/02/27 16:34:54;;;;;;;1.98;0.50;;;;;20.70;94635.00;;;;10510088;28;47371;-82
2022/02/27 16:39:55;;;;;;;1.33;0.60;;;;;20.60;94627.00;;;;10512442;28;48082;-80
2022/02/27 16:44:56;;;;;;;16.02;5.30;;;;;20.60;94635.00;;;;10513058;28;46896;-82
2022/02/27 16:49:58;;;;;;;21.20;6.40;;;;;20.70;94644.00;;;;10516602;28;47433;-81
2022/02/27 16:54:59;;;;;;;28.85;7.43;;;;;20.70;94653.00;;;;10511689;28;47175;-79
2022/02/27 17:00:00;;;;;;;14.55;5.63;;;;;20.60;94648.00;;;;10495508;28;47236;-80
2022/02/27 17:05:01;;;;;;;16.33;4.43;;;;;20.70;94672.00;;;;10509172;28;47414;-80
2022/02/27 17:10:07;;;;;;;9.20;3.45;;;;;20.50;94675.00;;;;10503810;28;47419;-81
2022/02/27 17:15:10;;;;;;;6.38;2.15;;;;;20.60;94680.00;;;;10496959;27;48509;-82
2022/02/27 17:20:11;;;;;;;6.28;1.90;;;;;20.60;94688.00;;;;10503349;28;48329;-80
2022/02/27 17:25:13;;;;;;;4.70;1.40;;;;;20.70;94691.00;;;;10502490;28;46976;-81
2022/02/27 17:30:14;;;;;;;4.78;1.70;;;;;20.70;94689.00;;;;10502181;28;47157;-83
2022/02/27 17:35:15;;;;;;;6.10;1.50;;;;;20.60;94685.00;;;;10520818;28;45417;-80
2022/02/27 17:40:17;;;;;;;3.60;1.45;;;;;20.60;94715.00;;;;10510836;28;47146;-83
2022/02/27 17:45:18;;;;;;;4.25;1.33;;;;;20.70;94691.00;;;;10511075;28;47873;-82
2022/02/27 17:50:19;;;;;;;4.15;1.30;;;;;20.70;94707.00;;;;10511476;28;46629;-82
2022/02/27 17:55:21;;;;;;;4.38;1.20;;;;;20.80;94705.00;;;;10510237;28;47960;-83
2022/02/27 18:00:22;;;;;;;2.72;1.10;;;;;20.80;94718.00;;;;10507605;28;47318;-82
2022/02/27 18:05:23;;;;;;;2.60;1.23;;;;;20.80;94709.00;;;;10530006;28;47123;-83
2022/02/27 18:10:24;;;;;;;3.00;0.80;;;;;21.00;94725.00;;;;10526392;28;45687;-82
2022/02/27 18:15:26;;;;;;;2.20;0.80;;;;;21.00;94727.00;;;;10509594;28;47239;-83
2022/02/27 18:20:27;;;;;;;2.47;1.20;;;;;21.10;94736.00;;;;10526991;28;47232;-83
2022/02/27 18:25:29;;;;;;;2.42;1.10;;;;;21.10;94725.00;;;;10503647;27;46972;-83
2022/02/27 18:30:32;;;;;;;1.77;0.90;;;;;21.20;94736.00;;;;10524884;28;46956;-83
2022/02/27 18:35:33;;;;;;;2.50;1.00;;;;;21.20;94729.00;;;;10516698;28;47132;-83
2022/02/27 18:40:34;;;;;;;1.25;0.90;;;;;21.20;94732.00;;;;10514004;28;46927;-83
2022/02/27 18:45:36;;;;;;;1.73;0.82;;;;;21.20;94736.00;;;;10512547;28;46864;-83
2022/02/27 18:50:37;;;;;;;1.95;0.90;;;;;21.10;94727.00;;;;10524737;28;47417;-80
2022/02/27 18:55:38;;;;;;;2.90;0.90;;;;;21.10;94747.00;;;;10476495;28;47073;-82
2022/02/27 19:00:39;;;;;;;2.03;0.98;;;;;21.10;94739.00;;;;10463355;28;47867;-83
2022/02/27 19:05:41;;;;;;;2.45;1.08;;;;;20.80;94755.00;;;;10475827;28;47219;-82
2022/02/27 19:10:43;;;;;;;2.08;1.00;;;;;20.80;94749.00;;;;10480853;28;47144;-82
2022/02/27 19:15:44;;;;;;;1.88;0.70;;;;;20.70;94761.00;;;;10483282;28;46999;-82
2022/02/27 19:20:45;;;;;;;1.17;0.80;;;;;20.70;94750.00;;;;10475549;28;47451;-82
2022/02/27 19:25:46;;;;;;;2.63;1.17;;;;;20.70;94764.00;;;;10476172;28;47720;-80
2022/02/27 19:30:50;;;;;;;2.05;0.70;;;;;20.60;94768.00;;;;10486305;28;45220;-81
2022/02/27 19:35:52;;;;;;;2.40;0.75;;;;;20.60;94769.00;;;;10468717;28;47353;-81
2022/02/27 19:40:58;;;;;;;1.58;0.85;;;;;20.50;94749.00;;;;10485171;28;46005;-81
2022/02/27 19:46:00;;;;;;;;;;;;;20.50;94759.00;;;;10469751;28;47330;-81
2022/02/27 19:51:02;;;;;;;1.27;0.50;;;;;20.50;94757.00;;;;10468942;28;47150;-81
2022/02/27 19:56:03;;;;;;;1.48;0.57;;;;;20.50;94755.00;;;;10468882;28;47197;-81
2022/02/27 20:01:05;;;;;;;1.70;0.80;;;;;20.50;94767.00;;;;10485755;28;45934;-81
2022/02/27 20:06:06;;;;;;;1.85;0.80;;;;;20.50;94774.00;;;;10468685;28;46915;-80
2022/02/27 20:11:08;;;;;;;1.02;0.50;;;;;20.50;94762.00;;;;10469868;28;47968;-81
2022/02/27 20:16:09;;;;;;;1.40;0.70;;;;;20.40;94786.00;;;;10486134;28;45258;-81
2022/02/27 20:21:15;;;;;;;1.20;0.80;;;;;20.40;94777.00;;;;10467687;28;47044;-81
2022/02/27 20:26:16;;;;;;;1.30;0.70;;;;;20.40;94787.00;;;;10469212;28;48192;-80
2022/02/27 20:31:18;;;;;;;1.88;0.80;;;;;20.40;94787.00;;;;10468962;28;47940;-81
2022/02/27 20:36:21;;;;;;;1.67;0.70;;;;;20.30;94792.00;;;;10469764;28;48088;-81
2022/02/27 20:41:22;;;;;;;0.80;0.60;;;;;20.30;94794.00;;;;10471601;28;47018;-80
2022/02/27 20:46:23;;;;;;;1.65;0.65;;;;;20.30;94787.00;;;;10470397;28;46928;-81
2022/02/27 20:51:25;;;;;;;1.20;0.70;;;;;20.30;94792.00;;;;10468797;28;48311;-80
2022/02/27 20:56:26;;;;;;;1.65;0.70;;;;;20.40;94780.00;;;;10486396;28;46342;-80
2022/02/27 21:01:28;;;;;;;1.90;1.00;;;;;20.30;94798.00;;;;10471608;28;47253;-80
2022/02/27 21:06:29;;;;;;;1.48;0.60;;;;;20.40;94795.00;;;;10470595;28;47302;-80
2022/02/27 21:11:30;;;;;;;2.50;1.05;;;;;20.50;94786.00;;;;10468456;28;47224;-80
2022/02/27 21:16:31;;;;;;;1.27;0.70;;;;;20.40;94794.00;;;;10468631;28;47065;-81
2022/02/27 21:21:32;;;;;;;1.15;0.70;;;;;20.30;94802.00;;;;10467095;28;47485;-81
2022/02/27 21:26:41;;;;;;;1.83;0.80;;;;;20.30;94811.00;;;;10464908;28;48155;-81
2022/02/27 21:31:42;;;;;;;1.83;0.65;;;;;20.30;94806.00;;;;10466563;28;47013;-82
2022/02/27 21:36:43;;;;;;;1.95;0.80;;;;;20.30;94802.00;;;;10470350;28;48151;-82
2022/02/27 21:41:44;;;;;;;2.00;0.73;;;;;20.30;94789.00;;;;10469255;28;46823;-81
2022/02/27 21:46:46;;;;;;;1.10;0.60;;;;;20.20;94802.00;;;;10466175;28;47337;-80
2022/02/27 21:51:47;;;;;;;1.08;0.70;;;;;20.20;94795.00;;;;10471971;28;48103;-82
2022/02/27 21:56:50;;;;;;;1.45;0.85;;;;;20.20;94794.00;;;;10482162;28;46832;-81
2022/02/27 22:01:51;;;;;;;1.80;0.88;;;;;20.20;94784.00;;;;10479419;28;47000;-81
2022/02/27 22:06:52;;;;;;;2.25;0.70;;;;;20.20;94772.00;;;;10488743;28;47412;-82
2022/02/27 22:11:53;;;;;;;1.70;0.90;;;;;20.10;94774.00;;;;10492684;28;47870;-81
2022/02/27 22:16:54;;;;;;;1.15;0.60;;;;;20.10;94777.00;;;;10494471;28;47362;-82
2022/02/27 22:21:55;;;;;;;0.80;0.70;;;;;20.10;94763.00;;;;10492595;28;47891;-82
2022/02/27 22:26:56;;;;;;;1.45;0.70;;;;;20.10;94759.00;;;;10507928;28;45320;-82
2022/02/27 22:31:57;;;;;;;1.13;0.60;;;;;20.10;94767.00;;;;10491564;28;47487;-84
2022/02/27 22:36:59;;;;;;;2.00;0.90;;;;;20.20;94777.00;;;;10504207;28;45241;-81
2022/02/27 22:42:00;;;;;;;2.42;0.70;;;;;20.10;94773.00;;;;10484089;28;47117;-80
2022/02/27 22:47:01;;;;;;;1.67;0.63;;;;;20.00;94780.00;;;;10471530;28;48518;-80
2022/02/27 22:52:03;;;;;;;1.67;0.73;;;;;20.00;94787.00;;;;10487403;28;45216;-80
2022/02/27 22:57:04;;;;;;;1.20;0.70;;;;;20.00;94758.00;;;;10469779;28;46668;-81
2022/02/27 23:02:08;;;;;;;1.40;0.80;;;;;20.00;94775.00;;;;10488466;28;45233;-80
2022/02/27 23:07:09;;;;;;;1.55;0.70;;;;;20.00;94780.00;;;;10471144;28;47258;-81
2022/02/27 23:12:10;;;;;;;1.35;0.70;;;;;20.00;94772.00;;;;10486572;28;45386;-80
2022/02/27 23:17:11;;;;;;;1.35;0.70;;;;;19.90;94785.00;;;;10468373;28;47123;-80
2022/02/27 23:22:12;;;;;;;2.50;0.88;;;;;19.90;94791.00;;;;10469165;28;46909;-80
2022/02/27 23:27:13;;;;;;;1.30;0.88;;;;;19.90;94785.00;;;;10467911;28;47097;-80
2022/02/27 23:32:15;;;;;;;1.63;0.93;;;;;19.90;94801.00;;;;10468640;28;46989;-80
2022/02/27 23:37:16;;;;;;;0.73;0.60;;;;;19.90;94793.00;;;;10467337;28;47265;-80
2022/02/27 23:42:17;;;;;;;1.58;0.75;;;;;19.90;94798.00;;;;10467675;28;47005;-80
2022/02/27 23:47:18;;;;;;;1.60;0.90;;;;;19.90;94792.00;;;;10484473;28;45307;-80
2022/02/27 23:52:19;;;;;;;1.15;0.70;;;;;19.90;94784.00;;;;10466648;28;47189;-81
2022/02/27 23:57:20;;;;;;;1.05;0.70;;;;;19.80;94794.00;;;;10465207;28;47575;-80
